RYR7RW GMMX-LPFR
Flight info
| Callsign | RYR7RW |
|---|---|
| Flight time | 1h 0m |
| Altitude | 34000 |
| Route | MABAP UR722 AMSEL DCT GIMAL |
| Aircraft | B738/M-SDE3FGILRWY/SB1 |
Departure
| Time | 2026-05-04 16:44 |
|---|---|
| Airport | Marrakesh Menara Airport (GMMX) |
Arrival
| Time | 2026-05-04 17:45 |
|---|---|
| Airport | Faro - Gago Coutinho International Airport (LPFR) |
| Time | Latitude | Longitude | Altitude | Speed | Heading |
|---|---|---|---|---|---|
| 2026-05-04 16:07 | 31.60297 | -8.02455 | 1548 ft | 0 kts | 185° |
| 2026-05-04 16:31 | 31.60333 | -8.02452 | 1540 ft | 4 kts | 185° |
| 2026-05-04 16:31 | 31.60399 | -8.02417 | 1534 ft | 4 kts | 242° |
| 2026-05-04 16:32 | 31.60406 | -8.02370 | 1548 ft | 0 kts | 276° |
| 2026-05-04 16:35 | 31.60410 | -8.02412 | 1539 ft | 7 kts | 276° |
| 2026-05-04 16:36 | 31.60416 | -8.02481 | 1548 ft | 10 kts | 276° |
| 2026-05-04 16:36 | 31.60432 | -8.02664 | 1548 ft | 12 kts | 275° |
| 2026-05-04 16:37 | 31.60447 | -8.02857 | 1548 ft | 12 kts | 275° |
| 2026-05-04 16:37 | 31.60454 | -8.02950 | 1548 ft | 11 kts | 275° |
| 2026-05-04 16:37 | 31.60470 | -8.03161 | 1541 ft | 15 kts | 277° |
| 2026-05-04 16:38 | 31.60498 | -8.03426 | 1547 ft | 16 kts | 276° |
| 2026-05-04 16:39 | 31.60530 | -8.03798 | 1543 ft | 14 kts | 276° |
| 2026-05-04 16:39 | 31.60551 | -8.04048 | 1547 ft | 17 kts | 276° |
| 2026-05-04 16:40 | 31.60576 | -8.04327 | 1547 ft | 17 kts | 276° |
| 2026-05-04 16:40 | 31.60599 | -8.04588 | 1547 ft | 15 kts | 276° |
| 2026-05-04 16:41 | 31.60620 | -8.04827 | 1540 ft | 15 kts | 276° |
| 2026-05-04 16:41 | 31.60661 | -8.05223 | 1540 ft | 14 kts | 299° |
| 2026-05-04 16:42 | 31.60823 | -8.05149 | 1531 ft | 0 kts | 94° |
| 2026-05-04 16:43 | 31.60820 | -8.05115 | 1531 ft | 23 kts | 95° |
| 2026-05-04 16:43 | 31.60690 | -8.03629 | 1539 ft | 153 kts | 95° |
| 2026-05-04 16:43 | 31.60558 | -8.02287 | 1952 ft | 170 kts | 93° |
| 2026-05-04 16:44 | 31.58773 | -7.96934 | 4736 ft | 194 kts | 111° |
| 2026-05-04 16:45 | 31.57564 | -7.93691 | 5013 ft | 246 kts | 111° |
| 2026-05-04 16:46 | 31.58616 | -7.88171 | 5809 ft | 268 kts | 29° |
| 2026-05-04 16:46 | 31.62271 | -7.87700 | 7311 ft | 278 kts | 339° |
| 2026-05-04 16:47 | 31.65762 | -7.89762 | 8836 ft | 286 kts | 328° |
| 2026-05-04 16:47 | 31.69251 | -7.92072 | 10314 ft | 295 kts | 327° |
| 2026-05-04 16:48 | 31.75132 | -7.95895 | 11556 ft | 337 kts | 328° |
| 2026-05-04 16:48 | 31.77199 | -7.97215 | 12318 ft | 339 kts | 328° |
| 2026-05-04 16:49 | 31.81372 | -7.99875 | 13846 ft | 344 kts | 328° |
| 2026-05-04 16:49 | 31.85635 | -8.02590 | 15224 ft | 352 kts | 328° |
| 2026-05-04 16:50 | 31.89943 | -8.05336 | 16658 ft | 358 kts | 327° |
| 2026-05-04 16:50 | 31.94372 | -8.08164 | 18052 ft | 366 kts | 327° |
| 2026-05-04 16:51 | 31.98851 | -8.11111 | 19318 ft | 371 kts | 326° |
| 2026-05-04 16:51 | 32.01120 | -8.12592 | 19972 ft | 374 kts | 326° |
| 2026-05-04 16:51 | 32.05726 | -8.15513 | 21221 ft | 379 kts | 326° |
| 2026-05-04 16:52 | 32.10439 | -8.18342 | 22366 ft | 391 kts | 334° |
| 2026-05-04 16:52 | 32.13114 | -8.19133 | 22941 ft | 403 kts | 346° |
| 2026-05-04 16:53 | 32.18844 | -8.18844 | 23968 ft | 421 kts | 2° |
| 2026-05-04 16:53 | 32.27624 | -8.17287 | 25394 ft | 429 kts | 3° |
| 2026-05-04 16:54 | 32.30588 | -8.16774 | 25836 ft | 431 kts | 2° |
| 2026-05-04 16:55 | 32.42566 | -8.14800 | 27627 ft | 440 kts | 2° |
| 2026-05-04 16:55 | 32.48672 | -8.13806 | 28453 ft | 446 kts | 2° |
| 2026-05-04 16:56 | 32.54850 | -8.12797 | 29239 ft | 450 kts | 3° |
| 2026-05-04 16:56 | 32.64088 | -8.11280 | 30792 ft | 445 kts | 2° |
| 2026-05-04 16:57 | 32.67150 | -8.10778 | 31249 ft | 443 kts | 2° |
| 2026-05-04 16:57 | 32.73274 | -8.09776 | 31966 ft | 446 kts | 1° |
| 2026-05-04 16:58 | 32.82475 | -8.08281 | 33165 ft | 444 kts | 1° |
| 2026-05-04 16:58 | 32.85499 | -8.07789 | 33498 ft | 444 kts | 1° |
| 2026-05-04 16:59 | 32.91629 | -8.06731 | 34062 ft | 452 kts | 6° |
| 2026-05-04 17:00 | 33.03217 | -8.00190 | 34062 ft | 461 kts | 24° |
| 2026-05-04 17:01 | 33.17183 | -7.90850 | 34079 ft | 462 kts | 23° |
| 2026-05-04 17:02 | 33.28459 | -7.83405 | 34078 ft | 463 kts | 23° |
| 2026-05-04 17:03 | 33.36928 | -7.77794 | 34081 ft | 464 kts | 23° |
| 2026-05-04 17:03 | 33.45349 | -7.72190 | 34107 ft | 463 kts | 23° |
| 2026-05-04 17:04 | 33.51123 | -7.68925 | 34067 ft | 452 kts | 8° |
| 2026-05-04 17:04 | 33.57209 | -7.68028 | 34068 ft | 432 kts | 348° |
| 2026-05-04 17:05 | 33.69120 | -7.69219 | 34070 ft | 432 kts | 348° |
| 2026-05-04 17:06 | 33.78141 | -7.70074 | 34093 ft | 434 kts | 348° |
| 2026-05-04 17:07 | 33.86166 | -7.70807 | 34081 ft | 434 kts | 348° |
| 2026-05-04 17:07 | 33.93153 | -7.71448 | 34083 ft | 432 kts | 348° |
| 2026-05-04 17:08 | 34.02149 | -7.72275 | 34088 ft | 432 kts | 347° |
| 2026-05-04 17:09 | 34.08134 | -7.72824 | 34081 ft | 431 kts | 347° |
| 2026-05-04 17:09 | 34.14071 | -7.73372 | 34081 ft | 430 kts | 347° |
| 2026-05-04 17:10 | 34.29010 | -7.74544 | 34092 ft | 431 kts | 348° |
| 2026-05-04 17:11 | 34.35004 | -7.74945 | 34088 ft | 431 kts | 348° |
| 2026-05-04 17:12 | 34.43962 | -7.75567 | 34088 ft | 432 kts | 348° |
| 2026-05-04 17:13 | 34.58983 | -7.76626 | 34093 ft | 433 kts | 348° |
| 2026-05-04 17:14 | 34.70980 | -7.77473 | 34091 ft | 434 kts | 348° |
| 2026-05-04 17:15 | 34.80007 | -7.78159 | 34096 ft | 433 kts | 347° |
| 2026-05-04 17:16 | 34.91982 | -7.79169 | 34086 ft | 429 kts | 347° |
| 2026-05-04 17:16 | 35.00813 | -7.79898 | 33858 ft | 418 kts | 347° |
| 2026-05-04 17:17 | 35.03675 | -7.80132 | 33579 ft | 410 kts | 346° |
| 2026-05-04 17:17 | 35.12096 | -7.80835 | 32489 ft | 399 kts | 346° |
| 2026-05-04 17:18 | 35.14854 | -7.81067 | 32132 ft | 396 kts | 346° |
| 2026-05-04 17:18 | 35.20305 | -7.81523 | 31430 ft | 390 kts | 346° |
| 2026-05-04 17:19 | 35.25654 | -7.81976 | 30778 ft | 385 kts | 346° |
| 2026-05-04 17:19 | 35.30966 | -7.82422 | 30057 ft | 381 kts | 346° |
| 2026-05-04 17:20 | 35.36214 | -7.82860 | 29263 ft | 375 kts | 346° |
| 2026-05-04 17:20 | 35.41378 | -7.83293 | 28540 ft | 368 kts | 346° |
| 2026-05-04 17:20 | 35.43892 | -7.83515 | 28180 ft | 365 kts | 346° |
| 2026-05-04 17:21 | 35.48915 | -7.83964 | 27478 ft | 359 kts | 346° |
| 2026-05-04 17:21 | 35.53878 | -7.84415 | 26797 ft | 355 kts | 346° |
| 2026-05-04 17:22 | 35.56331 | -7.84637 | 26444 ft | 353 kts | 346° |
| 2026-05-04 17:22 | 35.58771 | -7.84857 | 26101 ft | 351 kts | 346° |
| 2026-05-04 17:23 | 35.65990 | -7.85510 | 25078 ft | 346 kts | 347° |
| 2026-05-04 17:23 | 35.68385 | -7.85728 | 24740 ft | 344 kts | 347° |
| 2026-05-04 17:23 | 35.73119 | -7.86157 | 24056 ft | 342 kts | 347° |
| 2026-05-04 17:24 | 35.75485 | -7.86371 | 23716 ft | 341 kts | 348° |
| 2026-05-04 17:24 | 35.82552 | -7.86193 | 22947 ft | 343 kts | 0° |
| 2026-05-04 17:25 | 35.84932 | -7.85780 | 22589 ft | 349 kts | 1° |
| 2026-05-04 17:25 | 35.89710 | -7.84966 | 21771 ft | 342 kts | 0° |
| 2026-05-04 17:26 | 35.94387 | -7.84197 | 20654 ft | 338 kts | 1° |
| 2026-05-04 17:26 | 36.01296 | -7.83056 | 19145 ft | 329 kts | 2° |
| 2026-05-04 17:27 | 36.05770 | -7.82311 | 18159 ft | 324 kts | 2° |
| 2026-05-04 17:27 | 36.10212 | -7.81572 | 17082 ft | 319 kts | 2° |
| 2026-05-04 17:28 | 36.14582 | -7.80842 | 16050 ft | 315 kts | 2° |
| 2026-05-04 17:29 | 36.21019 | -7.79766 | 14707 ft | 309 kts | 2° |
| 2026-05-04 17:29 | 36.27359 | -7.78708 | 13719 ft | 308 kts | 2° |
| 2026-05-04 17:30 | 36.33691 | -7.77646 | 12733 ft | 304 kts | 2° |
| 2026-05-04 17:31 | 36.37865 | -7.76946 | 12105 ft | 302 kts | 2° |
| 2026-05-04 17:31 | 36.44073 | -7.75903 | 11163 ft | 299 kts | 3° |
| 2026-05-04 17:32 | 36.48150 | -7.75217 | 10546 ft | 297 kts | 3° |
| 2026-05-04 17:33 | 36.54196 | -7.74194 | 9786 ft | 289 kts | 2° |
| 2026-05-04 17:33 | 36.56181 | -7.73861 | 9480 ft | 287 kts | 3° |
| 2026-05-04 17:34 | 36.62024 | -7.72874 | 8576 ft | 275 kts | 4° |
| 2026-05-04 17:34 | 36.63871 | -7.72559 | 8306 ft | 269 kts | 4° |
| 2026-05-04 17:35 | 36.69343 | -7.71631 | 7511 ft | 262 kts | 3° |
| 2026-05-04 17:35 | 36.72937 | -7.71028 | 6980 ft | 259 kts | 5° |
| 2026-05-04 17:35 | 36.74720 | -7.70727 | 6731 ft | 258 kts | 6° |
| 2026-05-04 17:36 | 36.76492 | -7.70424 | 6458 ft | 257 kts | 5° |
| 2026-05-04 17:36 | 36.78264 | -7.70122 | 6166 ft | 257 kts | 6° |
| 2026-05-04 17:36 | 36.80011 | -7.69826 | 5914 ft | 256 kts | 5° |
| 2026-05-04 17:36 | 36.81766 | -7.69529 | 5648 ft | 254 kts | 5° |
| 2026-05-04 17:37 | 36.83509 | -7.69233 | 5440 ft | 251 kts | 5° |
| 2026-05-04 17:37 | 36.85213 | -7.68941 | 5296 ft | 245 kts | 6° |
| 2026-05-04 17:37 | 36.86876 | -7.68659 | 5177 ft | 238 kts | 5° |
| 2026-05-04 17:37 | 36.88493 | -7.68461 | 5086 ft | 228 kts | 2° |
| 2026-05-04 17:38 | 36.90013 | -7.68304 | 5002 ft | 210 kts | 2° |
| 2026-05-04 17:38 | 36.91407 | -7.68157 | 4888 ft | 193 kts | 1° |
| 2026-05-04 17:38 | 36.92686 | -7.68022 | 4753 ft | 178 kts | 1° |
| 2026-05-04 17:38 | 36.93870 | -7.67896 | 4684 ft | 173 kts | 2° |
| 2026-05-04 17:39 | 36.96308 | -7.67924 | 4325 ft | 166 kts | 327° |
| 2026-05-04 17:39 | 36.96942 | -7.69024 | 4253 ft | 161 kts | 291° |
| 2026-05-04 17:39 | 36.97346 | -7.70370 | 4051 ft | 169 kts | 291° |
| 2026-05-04 17:40 | 36.97713 | -7.71776 | 3821 ft | 169 kts | 289° |
| 2026-05-04 17:40 | 36.98051 | -7.73166 | 3617 ft | 165 kts | 289° |
| 2026-05-04 17:40 | 36.98317 | -7.74548 | 3383 ft | 161 kts | 285° |
| 2026-05-04 17:40 | 36.98530 | -7.75900 | 3180 ft | 155 kts | 285° |
| 2026-05-04 17:41 | 36.98720 | -7.77215 | 2958 ft | 153 kts | 285° |
| 2026-05-04 17:41 | 36.98907 | -7.78534 | 2769 ft | 156 kts | 284° |
| 2026-05-04 17:41 | 36.99097 | -7.79889 | 2556 ft | 159 kts | 283° |
| 2026-05-04 17:41 | 36.99285 | -7.81233 | 2345 ft | 160 kts | 283° |
| 2026-05-04 17:42 | 36.99476 | -7.82599 | 2146 ft | 157 kts | 283° |
| 2026-05-04 17:42 | 36.99657 | -7.83901 | 1928 ft | 147 kts | 283° |
| 2026-05-04 17:42 | 36.99830 | -7.85134 | 1723 ft | 144 kts | 284° |
| 2026-05-04 17:42 | 37.00006 | -7.86376 | 1529 ft | 146 kts | 284° |
| 2026-05-04 17:43 | 37.00176 | -7.87599 | 1348 ft | 142 kts | 282° |
| 2026-05-04 17:43 | 37.00344 | -7.88795 | 1156 ft | 139 kts | 282° |
| 2026-05-04 17:43 | 37.00508 | -7.89963 | 978 ft | 135 kts | 281° |
| 2026-05-04 17:43 | 37.00663 | -7.91115 | 817 ft | 133 kts | 279° |
| 2026-05-04 17:44 | 37.00817 | -7.92232 | 617 ft | 130 kts | 280° |
| 2026-05-04 17:44 | 37.00985 | -7.93310 | 461 ft | 129 kts | 281° |
| 2026-05-04 17:44 | 37.01147 | -7.94424 | 291 ft | 132 kts | 278° |
| 2026-05-04 17:44 | 37.01298 | -7.95549 | 114 ft | 131 kts | 276° |
| 2026-05-04 17:45 | 37.01448 | -7.96642 | 22 ft | 114 kts | 279° |
| 2026-05-04 17:45 | 37.01483 | -7.96904 | 26 ft | 61 kts | 277° |
| 2026-05-04 17:45 | 37.01529 | -7.97214 | 21 ft | 30 kts | 280° |
| 2026-05-04 17:45 | 37.01564 | -7.97460 | 19 ft | 27 kts | 280° |
| 2026-05-04 17:46 | 37.01596 | -7.97684 | 18 ft | 25 kts | 280° |
| 2026-05-04 17:46 | 37.01638 | -7.97838 | 19 ft | 16 kts | 324° |
| 2026-05-04 17:46 | 37.01713 | -7.97823 | 19 ft | 7 kts | 34° |
| 2026-05-04 17:46 | 37.01715 | -7.97821 | 19 ft | 0 kts | 34° |
| 2026-05-04 17:47 | 37.01740 | -7.97776 | 19 ft | 0 kts | 63° |
| 2026-05-04 17:49 | 37.01741 | -7.97775 | 19 ft | 0 kts | 63° |
| 2026-05-04 17:50 | 37.01742 | -7.97773 | 19 ft | 1 kts | 63° |
| 2026-05-04 17:50 | 37.01761 | -7.97716 | 20 ft | 20 kts | 69° |
| 2026-05-04 17:50 | 37.01765 | -7.97543 | 19 ft | 21 kts | 99° |
| 2026-05-04 17:50 | 37.01743 | -7.97367 | 22 ft | 19 kts | 99° |
| 2026-05-04 17:51 | 37.01721 | -7.97215 | 19 ft | 17 kts | 101° |
| 2026-05-04 17:51 | 37.01698 | -7.97070 | 21 ft | 17 kts | 101° |
| 2026-05-04 17:51 | 37.01682 | -7.96971 | 20 ft | 0 kts | 101° |
| 2026-05-04 17:51 | 37.01707 | -7.96913 | 20 ft | 15 kts | 28° |
| 2026-05-04 17:52 | 37.01800 | -7.96893 | 19 ft | 12 kts | 354° |
| 2026-05-04 17:52 | 37.01863 | -7.96926 | 19 ft | 10 kts | 358° |
| 2026-05-04 17:52 | 37.01904 | -7.96918 | 19 ft | 0 kts | 9° |
| 2026-05-04 17:52 | 37.01905 | -7.96918 | 19 ft | 0 kts | 9° |
| 2026-05-04 17:53 | 37.01907 | -7.96917 | 19 ft | 0 kts | 14° |
| 2026-05-04 17:53 | 37.01908 | -7.96917 | 19 ft | 0 kts | 11° |
| 2026-05-04 17:53 | 37.01909 | -7.96917 | 19 ft | 0 kts | 11° |
| 2026-05-04 17:53 | 37.01911 | -7.96916 | 19 ft | 0 kts | 16° |
| 2026-05-04 17:54 | 37.01913 | -7.96916 | 19 ft | 0 kts | 12° |
| 2026-05-04 17:54 | 37.01914 | -7.96916 | 19 ft | 0 kts | 9° |